sensor_id;sensor_type;location;lat;lon;timestamp;temperature;humidity
17399;DHT22;8817;48.170;8.592;2023-06-22T00:00:47;26.60;48.40
17399;DHT22;8817;48.170;8.592;2023-06-22T00:03:17;26.60;48.40
17399;DHT22;8817;48.170;8.592;2023-06-22T00:05:43;26.60;48.50
17399;DHT22;8817;48.170;8.592;2023-06-22T00:08:10;26.60;48.40
17399;DHT22;8817;48.170;8.592;2023-06-22T00:10:37;26.60;48.50
17399;DHT22;8817;48.170;8.592;2023-06-22T00:13:05;26.50;48.40
17399;DHT22;8817;48.170;8.592;2023-06-22T00:15:32;26.50;48.50
17399;DHT22;8817;48.170;8.592;2023-06-22T00:17:59;26.50;48.50
17399;DHT22;8817;48.170;8.592;2023-06-22T00:20:27;26.50;48.50
17399;DHT22;8817;48.170;8.592;2023-06-22T00:22:54;26.40;48.50
17399;DHT22;8817;48.170;8.592;2023-06-22T00:25:22;26.40;48.50
17399;DHT22;8817;48.170;8.592;2023-06-22T00:27:49;26.40;48.60
17399;DHT22;8817;48.170;8.592;2023-06-22T00:30:16;26.40;48.60
17399;DHT22;8817;48.170;8.592;2023-06-22T00:32:43;26.40;48.60
17399;DHT22;8817;48.170;8.592;2023-06-22T00:35:11;26.30;48.60
17399;DHT22;8817;48.170;8.592;2023-06-22T00:37:39;26.30;48.60
17399;DHT22;8817;48.170;8.592;2023-06-22T00:40:08;26.30;48.60
17399;DHT22;8817;48.170;8.592;2023-06-22T00:42:36;26.30;48.60
17399;DHT22;8817;48.170;8.592;2023-06-22T00:45:04;26.20;48.50
17399;DHT22;8817;48.170;8.592;2023-06-22T00:47:32;26.20;48.60
17399;DHT22;8817;48.170;8.592;2023-06-22T00:50:00;26.20;48.70
17399;DHT22;8817;48.170;8.592;2023-06-22T00:52:28;26.20;48.70
17399;DHT22;8817;48.170;8.592;2023-06-22T00:54:57;26.10;48.70
17399;DHT22;8817;48.170;8.592;2023-06-22T00:57:27;26.10;48.80
17399;DHT22;8817;48.170;8.592;2023-06-22T00:59:54;26.10;48.80
17399;DHT22;8817;48.170;8.592;2023-06-22T01:02:21;26.10;48.90
17399;DHT22;8817;48.170;8.592;2023-06-22T01:04:48;26.10;48.90
17399;DHT22;8817;48.170;8.592;2023-06-22T01:07:21;26.00;48.90
17399;DHT22;8817;48.170;8.592;2023-06-22T01:09:59;26.00;48.90
17399;DHT22;8817;48.170;8.592;2023-06-22T01:12:30;26.00;48.90
17399;DHT22;8817;48.170;8.592;2023-06-22T01:15:07;26.00;48.90
17399;DHT22;8817;48.170;8.592;2023-06-22T01:17:35;25.90;48.90
17399;DHT22;8817;48.170;8.592;2023-06-22T01:20:04;25.90;48.90
17399;DHT22;8817;48.170;8.592;2023-06-22T01:22:34;25.90;49.00
17399;DHT22;8817;48.170;8.592;2023-06-22T01:25:09;25.90;49.10
17399;DHT22;8817;48.170;8.592;2023-06-22T01:27:50;25.80;49.00
17399;DHT22;8817;48.170;8.592;2023-06-22T01:30:21;25.80;49.60
17399;DHT22;8817;48.170;8.592;2023-06-22T01:32:53;25.80;49.10
17399;DHT22;8817;48.170;8.592;2023-06-22T01:35:20;25.80;49.10
17399;DHT22;8817;48.170;8.592;2023-06-22T01:37:48;25.80;49.20
17399;DHT22;8817;48.170;8.592;2023-06-22T01:40:16;25.80;49.20
17399;DHT22;8817;48.170;8.592;2023-06-22T01:42:43;25.80;49.30
17399;DHT22;8817;48.170;8.592;2023-06-22T01:45:11;25.80;49.30
17399;DHT22;8817;48.170;8.592;2023-06-22T01:47:40;25.80;49.40
17399;DHT22;8817;48.170;8.592;2023-06-22T01:50:08;25.80;49.40
17399;DHT22;8817;48.170;8.592;2023-06-22T01:52:35;25.80;49.40
17399;DHT22;8817;48.170;8.592;2023-06-22T01:55:03;25.80;49.40
17399;DHT22;8817;48.170;8.592;2023-06-22T01:57:32;25.80;49.40
17399;DHT22;8817;48.170;8.592;2023-06-22T02:00:00;25.80;49.50
17399;DHT22;8817;48.170;8.592;2023-06-22T02:02:31;25.80;49.50
17399;DHT22;8817;48.170;8.592;2023-06-22T02:05:05;25.70;49.40
17399;DHT22;8817;48.170;8.592;2023-06-22T02:07:36;25.70;49.40
17399;DHT22;8817;48.170;8.592;2023-06-22T02:10:07;25.70;49.40
17399;DHT22;8817;48.170;8.592;2023-06-22T02:12:35;25.70;49.40
17399;DHT22;8817;48.170;8.592;2023-06-22T02:15:03;25.70;49.50
17399;DHT22;8817;48.170;8.592;2023-06-22T02:17:31;25.70;49.50
17399;DHT22;8817;48.170;8.592;2023-06-22T02:19:59;25.70;49.80
17399;DHT22;8817;48.170;8.592;2023-06-22T02:22:28;25.70;49.60
17399;DHT22;8817;48.170;8.592;2023-06-22T02:24:56;25.70;49.60
17399;DHT22;8817;48.170;8.592;2023-06-22T02:27:23;25.70;49.60
17399;DHT22;8817;48.170;8.592;2023-06-22T02:29:49;25.60;49.60
17399;DHT22;8817;48.170;8.592;2023-06-22T02:32:16;25.70;49.60
17399;DHT22;8817;48.170;8.592;2023-06-22T02:34:43;25.70;49.60
17399;DHT22;8817;48.170;8.592;2023-06-22T02:37:13;25.60;49.60
17399;DHT22;8817;48.170;8.592;2023-06-22T02:39:41;25.60;49.60
17399;DHT22;8817;48.170;8.592;2023-06-22T02:42:08;25.60;49.60
17399;DHT22;8817;48.170;8.592;2023-06-22T02:44:36;25.60;49.60
17399;DHT22;8817;48.170;8.592;2023-06-22T02:47:03;25.60;49.60
17399;DHT22;8817;48.170;8.592;2023-06-22T02:49:30;25.60;49.70
17399;DHT22;8817;48.170;8.592;2023-06-22T02:51:57;25.50;49.60
17399;DHT22;8817;48.170;8.592;2023-06-22T02:54:24;25.60;49.70
17399;DHT22;8817;48.170;8.592;2023-06-22T02:56:52;25.50;49.70
17399;DHT22;8817;48.170;8.592;2023-06-22T02:59:19;25.50;49.70
17399;DHT22;8817;48.170;8.592;2023-06-22T03:01:49;25.50;49.70
17399;DHT22;8817;48.170;8.592;2023-06-22T03:04:17;25.50;49.70
17399;DHT22;8817;48.170;8.592;2023-06-22T03:06:44;25.50;49.80
17399;DHT22;8817;48.170;8.592;2023-06-22T03:09:17;25.50;49.80
17399;DHT22;8817;48.170;8.592;2023-06-22T03:11:44;25.50;49.80
17399;DHT22;8817;48.170;8.592;2023-06-22T03:14:12;25.40;49.80
17399;DHT22;8817;48.170;8.592;2023-06-22T03:16:39;25.40;49.80
17399;DHT22;8817;48.170;8.592;2023-06-22T03:19:07;25.40;49.90
17399;DHT22;8817;48.170;8.592;2023-06-22T03:21:33;25.40;49.90
17399;DHT22;8817;48.170;8.592;2023-06-22T03:24:00;25.40;49.90
17399;DHT22;8817;48.170;8.592;2023-06-22T03:26:27;25.40;49.90
17399;DHT22;8817;48.170;8.592;2023-06-22T03:28:55;25.40;50.00
17399;DHT22;8817;48.170;8.592;2023-06-22T03:31:23;25.40;50.00
17399;DHT22;8817;48.170;8.592;2023-06-22T03:33:50;25.30;50.00
17399;DHT22;8817;48.170;8.592;2023-06-22T03:36:18;25.40;50.00
17399;DHT22;8817;48.170;8.592;2023-06-22T03:38:45;25.30;50.00
17399;DHT22;8817;48.170;8.592;2023-06-22T03:41:12;25.30;50.00
17399;DHT22;8817;48.170;8.592;2023-06-22T03:43:39;25.30;50.60
17399;DHT22;8817;48.170;8.592;2023-06-22T03:46:06;25.30;50.10
17399;DHT22;8817;48.170;8.592;2023-06-22T03:48:34;25.30;50.10
17399;DHT22;8817;48.170;8.592;2023-06-22T03:51:01;25.30;50.70
17399;DHT22;8817;48.170;8.592;2023-06-22T03:53:29;25.20;50.10
17399;DHT22;8817;48.170;8.592;2023-06-22T03:55:56;25.20;50.10
17399;DHT22;8817;48.170;8.592;2023-06-22T03:58:23;25.20;50.20
17399;DHT22;8817;48.170;8.592;2023-06-22T04:00:51;25.20;50.20
17399;DHT22;8817;48.170;8.592;2023-06-22T04:03:19;25.20;50.20
17399;DHT22;8817;48.170;8.592;2023-06-22T04:05:47;25.20;50.30
17399;DHT22;8817;48.170;8.592;2023-06-22T04:08:14;25.20;50.30
17399;DHT22;8817;48.170;8.592;2023-06-22T04:10:41;25.20;51.00
17399;DHT22;8817;48.170;8.592;2023-06-22T04:13:08;25.20;50.30
17399;DHT22;8817;48.170;8.592;2023-06-22T04:15:35;25.20;50.40
17399;DHT22;8817;48.170;8.592;2023-06-22T04:18:02;25.20;50.40
17399;DHT22;8817;48.170;8.592;2023-06-22T04:20:30;25.20;50.50
17399;DHT22;8817;48.170;8.592;2023-06-22T04:22:58;25.30;50.60
17399;DHT22;8817;48.170;8.592;2023-06-22T04:25:25;25.30;50.60
17399;DHT22;8817;48.170;8.592;2023-06-22T04:27:52;25.30;50.60
17399;DHT22;8817;48.170;8.592;2023-06-22T04:30:19;25.30;50.60
17399;DHT22;8817;48.170;8.592;2023-06-22T04:32:46;25.30;50.70
17399;DHT22;8817;48.170;8.592;2023-06-22T04:35:21;25.30;50.70
17399;DHT22;8817;48.170;8.592;2023-06-22T04:37:48;25.30;50.70
17399;DHT22;8817;48.170;8.592;2023-06-22T04:40:22;25.30;50.70
17399;DHT22;8817;48.170;8.592;2023-06-22T04:42:49;25.30;50.80
17399;DHT22;8817;48.170;8.592;2023-06-22T04:45:19;25.40;50.90
17399;DHT22;8817;48.170;8.592;2023-06-22T04:47:46;25.40;51.50
17399;DHT22;8817;48.170;8.592;2023-06-22T04:50:13;25.40;51.00
17399;DHT22;8817;48.170;8.592;2023-06-22T04:52:40;25.40;51.10
17399;DHT22;8817;48.170;8.592;2023-06-22T04:55:07;25.50;51.10
17399;DHT22;8817;48.170;8.592;2023-06-22T04:57:36;25.50;51.10
17399;DHT22;8817;48.170;8.592;2023-06-22T05:00:05;25.50;51.20
17399;DHT22;8817;48.170;8.592;2023-06-22T05:02:38;25.60;51.20
17399;DHT22;8817;48.170;8.592;2023-06-22T05:05:05;25.60;51.20
17399;DHT22;8817;48.170;8.592;2023-06-22T05:07:33;25.60;51.20
17399;DHT22;8817;48.170;8.592;2023-06-22T05:10:00;25.70;51.40
17399;DHT22;8817;48.170;8.592;2023-06-22T05:12:28;25.70;51.40
17399;DHT22;8817;48.170;8.592;2023-06-22T05:14:56;25.80;51.50
17399;DHT22;8817;48.170;8.592;2023-06-22T05:17:23;25.80;51.60
17399;DHT22;8817;48.170;8.592;2023-06-22T05:19:50;25.90;51.60
17399;DHT22;8817;48.170;8.592;2023-06-22T05:22:18;25.90;51.70
17399;DHT22;8817;48.170;8.592;2023-06-22T05:24:45;26.00;51.70
17399;DHT22;8817;48.170;8.592;2023-06-22T05:27:12;26.10;52.40
17399;DHT22;8817;48.170;8.592;2023-06-22T05:29:39;26.20;51.90
17399;DHT22;8817;48.170;8.592;2023-06-22T05:32:09;26.20;51.80
17399;DHT22;8817;48.170;8.592;2023-06-22T05:34:36;26.30;51.90
17399;DHT22;8817;48.170;8.592;2023-06-22T05:37:04;26.40;52.00
17399;DHT22;8817;48.170;8.592;2023-06-22T05:39:31;26.50;52.00
17399;DHT22;8817;48.170;8.592;2023-06-22T05:41:58;26.50;52.00
17399;DHT22;8817;48.170;8.592;2023-06-22T05:44:25;26.60;51.90
17399;DHT22;8817;48.170;8.592;2023-06-22T05:46:52;26.60;51.90
17399;DHT22;8817;48.170;8.592;2023-06-22T05:49:20;26.70;51.90
17399;DHT22;8817;48.170;8.592;2023-06-22T05:51:48;26.70;51.90
17399;DHT22;8817;48.170;8.592;2023-06-22T05:54:15;26.80;52.00
17399;DHT22;8817;48.170;8.592;2023-06-22T05:56:43;26.80;52.00
17399;DHT22;8817;48.170;8.592;2023-06-22T05:59:10;26.90;52.10
17399;DHT22;8817;48.170;8.592;2023-06-22T06:01:37;26.90;52.00
17399;DHT22;8817;48.170;8.592;2023-06-22T06:04:05;27.00;52.10
17399;DHT22;8817;48.170;8.592;2023-06-22T06:06:35;27.00;52.10
17399;DHT22;8817;48.170;8.592;2023-06-22T06:09:02;27.10;52.10
17399;DHT22;8817;48.170;8.592;2023-06-22T06:11:29;27.20;52.10
17399;DHT22;8817;48.170;8.592;2023-06-22T06:13:56;27.20;52.10
17399;DHT22;8817;48.170;8.592;2023-06-22T06:16:23;27.30;52.20
17399;DHT22;8817;48.170;8.592;2023-06-22T06:18:50;27.40;52.20
17399;DHT22;8817;48.170;8.592;2023-06-22T06:21:18;27.40;52.10
17399;DHT22;8817;48.170;8.592;2023-06-22T06:23:47;27.40;52.10
17399;DHT22;8817;48.170;8.592;2023-06-22T06:26:14;27.50;52.20
17399;DHT22;8817;48.170;8.592;2023-06-22T06:28:42;27.60;52.10
17399;DHT22;8817;48.170;8.592;2023-06-22T06:31:09;27.60;52.00
17399;DHT22;8817;48.170;8.592;2023-06-22T06:33:37;27.60;52.00
17399;DHT22;8817;48.170;8.592;2023-06-22T06:36:04;27.70;52.10
17399;DHT22;8817;48.170;8.592;2023-06-22T06:38:33;27.70;52.10
17399;DHT22;8817;48.170;8.592;2023-06-22T06:41:02;27.70;52.00
17399;DHT22;8817;48.170;8.592;2023-06-22T06:43:28;27.80;52.20
17399;DHT22;8817;48.170;8.592;2023-06-22T06:45:55;27.80;52.20
17399;DHT22;8817;48.170;8.592;2023-06-22T06:48:22;27.90;52.20
17399;DHT22;8817;48.170;8.592;2023-06-22T06:50:49;27.90;52.10
17399;DHT22;8817;48.170;8.592;2023-06-22T06:53:16;28.00;52.20
17399;DHT22;8817;48.170;8.592;2023-06-22T06:55:43;28.00;52.10
17399;DHT22;8817;48.170;8.592;2023-06-22T06:58:12;28.10;52.10
17399;DHT22;8817;48.170;8.592;2023-06-22T07:00:40;28.10;52.10
17399;DHT22;8817;48.170;8.592;2023-06-22T07:03:08;28.20;52.20
17399;DHT22;8817;48.170;8.592;2023-06-22T07:05:34;28.30;52.40
17399;DHT22;8817;48.170;8.592;2023-06-22T07:08:02;28.40;52.50
17399;DHT22;8817;48.170;8.592;2023-06-22T07:10:28;28.50;52.50
17399;DHT22;8817;48.170;8.592;2023-06-22T07:12:56;28.50;52.40
17399;DHT22;8817;48.170;8.592;2023-06-22T07:15:24;28.60;52.40
17399;DHT22;8817;48.170;8.592;2023-06-22T07:17:51;28.70;52.40
17399;DHT22;8817;48.170;8.592;2023-06-22T07:20:18;28.70;52.30
17399;DHT22;8817;48.170;8.592;2023-06-22T07:22:45;28.80;52.20
17399;DHT22;8817;48.170;8.592;2023-06-22T07:25:12;28.80;52.00
17399;DHT22;8817;48.170;8.592;2023-06-22T07:27:45;28.80;52.00
17399;DHT22;8817;48.170;8.592;2023-06-22T07:30:13;28.80;52.00
17399;DHT22;8817;48.170;8.592;2023-06-22T07:32:41;28.80;52.00
17399;DHT22;8817;48.170;8.592;2023-06-22T07:35:08;28.90;52.10
17399;DHT22;8817;48.170;8.592;2023-06-22T07:37:36;28.90;52.00
17399;DHT22;8817;48.170;8.592;2023-06-22T07:40:03;28.90;52.00
17399;DHT22;8817;48.170;8.592;2023-06-22T07:42:32;29.00;52.10
17399;DHT22;8817;48.170;8.592;2023-06-22T07:44:59;29.00;52.00
17399;DHT22;8817;48.170;8.592;2023-06-22T07:47:27;29.00;52.10
17399;DHT22;8817;48.170;8.592;2023-06-22T07:49:55;29.10;52.10
17399;DHT22;8817;48.170;8.592;2023-06-22T07:52:23;29.10;51.90
17399;DHT22;8817;48.170;8.592;2023-06-22T07:54:51;29.10;51.70
17399;DHT22;8817;48.170;8.592;2023-06-22T07:57:18;29.10;51.60
17399;DHT22;8817;48.170;8.592;2023-06-22T07:59:45;29.00;51.70
17399;DHT22;8817;48.170;8.592;2023-06-22T08:02:12;29.00;51.70
17399;DHT22;8817;48.170;8.592;2023-06-22T08:04:39;29.00;51.90
17399;DHT22;8817;48.170;8.592;2023-06-22T08:07:07;29.00;51.90
17399;DHT22;8817;48.170;8.592;2023-06-22T08:09:35;29.00;51.80
17399;DHT22;8817;48.170;8.592;2023-06-22T08:12:02;29.00;51.80
17399;DHT22;8817;48.170;8.592;2023-06-22T08:14:30;29.00;51.80
17399;DHT22;8817;48.170;8.592;2023-06-22T08:16:56;29.10;52.00
17399;DHT22;8817;48.170;8.592;2023-06-22T08:19:23;29.10;52.10
17399;DHT22;8817;48.170;8.592;2023-06-22T08:21:50;29.20;52.30
17399;DHT22;8817;48.170;8.592;2023-06-22T08:24:18;29.30;52.50
17399;DHT22;8817;48.170;8.592;2023-06-22T08:26:45;29.40;52.60
17399;DHT22;8817;48.170;8.592;2023-06-22T08:29:12;29.50;52.60
17399;DHT22;8817;48.170;8.592;2023-06-22T08:31:40;29.60;52.40
17399;DHT22;8817;48.170;8.592;2023-06-22T08:34:07;29.70;52.20
17399;DHT22;8817;48.170;8.592;2023-06-22T08:36:33;29.70;52.10
17399;DHT22;8817;48.170;8.592;2023-06-22T08:39:06;29.80;52.10
17399;DHT22;8817;48.170;8.592;2023-06-22T08:41:35;29.80;52.10
17399;DHT22;8817;48.170;8.592;2023-06-22T08:44:02;29.90;52.20
17399;DHT22;8817;48.170;8.592;2023-06-22T08:46:29;30.00;52.20
17399;DHT22;8817;48.170;8.592;2023-06-22T08:48:59;30.10;52.20
17399;DHT22;8817;48.170;8.592;2023-06-22T08:51:26;30.10;52.30
17399;DHT22;8817;48.170;8.592;2023-06-22T08:53:54;30.30;52.30
17399;DHT22;8817;48.170;8.592;2023-06-22T08:56:20;30.40;52.30
17399;DHT22;8817;48.170;8.592;2023-06-22T08:58:49;30.50;52.30
17399;DHT22;8817;48.170;8.592;2023-06-22T09:01:16;30.50;52.40
17399;DHT22;8817;48.170;8.592;2023-06-22T09:03:42;30.60;52.40
17399;DHT22;8817;48.170;8.592;2023-06-22T09:06:09;30.80;52.50
17399;DHT22;8817;48.170;8.592;2023-06-22T09:08:36;30.90;52.50
17399;DHT22;8817;48.170;8.592;2023-06-22T09:11:03;31.00;52.40
17399;DHT22;8817;48.170;8.592;2023-06-22T09:13:31;31.10;52.30
17399;DHT22;8817;48.170;8.592;2023-06-22T09:15:59;31.20;52.30
17399;DHT22;8817;48.170;8.592;2023-06-22T09:18:26;31.30;52.10
17399;DHT22;8817;48.170;8.592;2023-06-22T09:20:53;31.40;51.90
17399;DHT22;8817;48.170;8.592;2023-06-22T09:23:20;31.40;51.70
17399;DHT22;8817;48.170;8.592;2023-06-22T09:25:47;31.50;51.60
17399;DHT22;8817;48.170;8.592;2023-06-22T09:28:14;31.60;51.70
17399;DHT22;8817;48.170;8.592;2023-06-22T09:30:43;31.60;51.50
17399;DHT22;8817;48.170;8.592;2023-06-22T09:33:11;31.60;51.60
17399;DHT22;8817;48.170;8.592;2023-06-22T09:35:38;31.70;51.60
17399;DHT22;8817;48.170;8.592;2023-06-22T09:38:05;31.80;51.60
17399;DHT22;8817;48.170;8.592;2023-06-22T09:40:32;31.80;51.50
17399;DHT22;8817;48.170;8.592;2023-06-22T09:43:01;31.90;51.40
17399;DHT22;8817;48.170;8.592;2023-06-22T09:45:27;31.90;51.30
17399;DHT22;8817;48.170;8.592;2023-06-22T09:47:54;32.00;51.70
17399;DHT22;8817;48.170;8.592;2023-06-22T09:50:22;32.00;51.10
17399;DHT22;8817;48.170;8.592;2023-06-22T09:52:49;32.00;51.10
17399;DHT22;8817;48.170;8.592;2023-06-22T09:55:20;32.10;51.10
17399;DHT22;8817;48.170;8.592;2023-06-22T09:57:47;32.10;51.00
17399;DHT22;8817;48.170;8.592;2023-06-22T10:00:16;32.20;50.90
17399;DHT22;8817;48.170;8.592;2023-06-22T10:02:44;32.20;50.70
17399;DHT22;8817;48.170;8.592;2023-06-22T10:05:11;32.20;50.70
17399;DHT22;8817;48.170;8.592;2023-06-22T10:07:40;32.20;50.70
17399;DHT22;8817;48.170;8.592;2023-06-22T10:10:09;32.30;50.70
17399;DHT22;8817;48.170;8.592;2023-06-22T10:12:36;32.30;50.80
17399;DHT22;8817;48.170;8.592;2023-06-22T10:15:04;32.30;50.60
17399;DHT22;8817;48.170;8.592;2023-06-22T10:17:31;32.30;50.50
17399;DHT22;8817;48.170;8.592;2023-06-22T10:19:57;32.30;50.40
17399;DHT22;8817;48.170;8.592;2023-06-22T10:22:24;32.30;50.30
17399;DHT22;8817;48.170;8.592;2023-06-22T10:24:52;32.30;50.30
17399;DHT22;8817;48.170;8.592;2023-06-22T10:27:19;32.30;50.20
17399;DHT22;8817;48.170;8.592;2023-06-22T10:29:46;32.30;50.10
17399;DHT22;8817;48.170;8.592;2023-06-22T10:32:13;32.30;50.10
17399;DHT22;8817;48.170;8.592;2023-06-22T10:34:40;32.30;50.10
17399;DHT22;8817;48.170;8.592;2023-06-22T10:37:06;32.30;50.10
17399;DHT22;8817;48.170;8.592;2023-06-22T10:39:33;32.30;49.90
17399;DHT22;8817;48.170;8.592;2023-06-22T10:42:02;32.30;49.90
17399;DHT22;8817;48.170;8.592;2023-06-22T10:44:28;32.30;50.00
17399;DHT22;8817;48.170;8.592;2023-06-22T10:46:55;32.30;50.00
17399;DHT22;8817;48.170;8.592;2023-06-22T10:49:22;32.40;50.00
17399;DHT22;8817;48.170;8.592;2023-06-22T10:51:49;32.40;49.90
17399;DHT22;8817;48.170;8.592;2023-06-22T10:54:16;32.40;49.90
17399;DHT22;8817;48.170;8.592;2023-06-22T10:56:43;32.50;49.80
17399;DHT22;8817;48.170;8.592;2023-06-22T10:59:12;32.40;49.70
17399;DHT22;8817;48.170;8.592;2023-06-22T11:01:38;32.40;49.50
17399;DHT22;8817;48.170;8.592;2023-06-22T11:04:05;32.40;49.50
17399;DHT22;8817;48.170;8.592;2023-06-22T11:06:32;32.30;49.30
17399;DHT22;8817;48.170;8.592;2023-06-22T11:08:59;32.30;49.30
17399;DHT22;8817;48.170;8.592;2023-06-22T11:11:26;32.30;49.20
17399;DHT22;8817;48.170;8.592;2023-06-22T11:13:53;32.30;49.20
17399;DHT22;8817;48.170;8.592;2023-06-22T11:16:21;32.30;49.20
17399;DHT22;8817;48.170;8.592;2023-06-22T11:18:48;32.30;49.20
17399;DHT22;8817;48.170;8.592;2023-06-22T11:21:15;32.30;49.20
17399;DHT22;8817;48.170;8.592;2023-06-22T11:23:42;32.30;49.20
17399;DHT22;8817;48.170;8.592;2023-06-22T11:26:09;32.30;49.30
17399;DHT22;8817;48.170;8.592;2023-06-22T11:28:35;32.30;49.20
17399;DHT22;8817;48.170;8.592;2023-06-22T11:31:03;32.30;49.20
17399;DHT22;8817;48.170;8.592;2023-06-22T11:33:31;32.30;49.20
17399;DHT22;8817;48.170;8.592;2023-06-22T11:35:58;32.30;49.10
17399;DHT22;8817;48.170;8.592;2023-06-22T11:38:25;32.30;49.10
17399;DHT22;8817;48.170;8.592;2023-06-22T11:40:52;32.30;49.10
17399;DHT22;8817;48.170;8.592;2023-06-22T11:43:19;32.30;49.10
17399;DHT22;8817;48.170;8.592;2023-06-22T11:45:46;32.30;49.10
17399;DHT22;8817;48.170;8.592;2023-06-22T11:48:12;32.20;48.90
17399;DHT22;8817;48.170;8.592;2023-06-22T11:50:41;32.20;48.80
17399;DHT22;8817;48.170;8.592;2023-06-22T11:53:07;32.10;48.80
17399;DHT22;8817;48.170;8.592;2023-06-22T11:55:34;32.10;48.80
17399;DHT22;8817;48.170;8.592;2023-06-22T11:58:01;32.00;48.70
17399;DHT22;8817;48.170;8.592;2023-06-22T12:00:29;32.00;48.80
17399;DHT22;8817;48.170;8.592;2023-06-22T12:02:56;31.90;48.80
17399;DHT22;8817;48.170;8.592;2023-06-22T12:05:23;31.80;48.80
17399;DHT22;8817;48.170;8.592;2023-06-22T12:07:53;31.80;48.90
17399;DHT22;8817;48.170;8.592;2023-06-22T12:10:20;31.80;49.00
17399;DHT22;8817;48.170;8.592;2023-06-22T12:12:47;31.70;49.00
17399;DHT22;8817;48.170;8.592;2023-06-22T12:15:14;31.70;49.00
17399;DHT22;8817;48.170;8.592;2023-06-22T12:17:41;31.70;49.00
17399;DHT22;8817;48.170;8.592;2023-06-22T12:20:08;31.60;48.90
17399;DHT22;8817;48.170;8.592;2023-06-22T12:22:35;31.60;49.00
17399;DHT22;8817;48.170;8.592;2023-06-22T12:25:05;31.60;49.00
17399;DHT22;8817;48.170;8.592;2023-06-22T12:27:32;31.60;49.10
17399;DHT22;8817;48.170;8.592;2023-06-22T12:29:59;31.60;49.00
17399;DHT22;8817;48.170;8.592;2023-06-22T12:32:26;31.60;49.00
17399;DHT22;8817;48.170;8.592;2023-06-22T12:34:53;31.60;49.00
17399;DHT22;8817;48.170;8.592;2023-06-22T12:37:20;31.60;48.90
17399;DHT22;8817;48.170;8.592;2023-06-22T12:39:46;31.60;49.50
17399;DHT22;8817;48.170;8.592;2023-06-22T12:42:15;31.60;48.90
17399;DHT22;8817;48.170;8.592;2023-06-22T12:44:42;31.70;48.90
17399;DHT22;8817;48.170;8.592;2023-06-22T12:47:09;31.70;48.80
17399;DHT22;8817;48.170;8.592;2023-06-22T12:49:36;31.80;48.80
17399;DHT22;8817;48.170;8.592;2023-06-22T12:52:09;31.80;48.80
17399;DHT22;8817;48.170;8.592;2023-06-22T12:54:36;31.80;48.80
17399;DHT22;8817;48.170;8.592;2023-06-22T12:57:03;31.90;48.70
17399;DHT22;8817;48.170;8.592;2023-06-22T12:59:31;31.90;48.70
17399;DHT22;8817;48.170;8.592;2023-06-22T13:01:58;31.90;48.70
17399;DHT22;8817;48.170;8.592;2023-06-22T13:04:25;32.00;48.80
17399;DHT22;8817;48.170;8.592;2023-06-22T13:06:51;32.00;48.80
17399;DHT22;8817;48.170;8.592;2023-06-22T13:09:19;32.00;48.80
17399;DHT22;8817;48.170;8.592;2023-06-22T13:11:46;32.10;48.90
17399;DHT22;8817;48.170;8.592;2023-06-22T13:14:12;32.10;48.70
17399;DHT22;8817;48.170;8.592;2023-06-22T13:16:42;32.10;49.10
17399;DHT22;8817;48.170;8.592;2023-06-22T13:19:09;32.10;48.10
17399;DHT22;8817;48.170;8.592;2023-06-22T13:21:36;32.20;47.80
17399;DHT22;8817;48.170;8.592;2023-06-22T13:24:04;32.10;47.40
17399;DHT22;8817;48.170;8.592;2023-06-22T13:26:31;32.10;47.00
17399;DHT22;8817;48.170;8.592;2023-06-22T13:28:59;32.10;46.70
17399;DHT22;8817;48.170;8.592;2023-06-22T13:31:25;32.00;46.30
17399;DHT22;8817;48.170;8.592;2023-06-22T13:33:54;32.00;46.20
17399;DHT22;8817;48.170;8.592;2023-06-22T13:36:20;32.00;46.00
17399;DHT22;8817;48.170;8.592;2023-06-22T13:38:48;32.00;46.00
17399;DHT22;8817;48.170;8.592;2023-06-22T13:41:15;32.00;45.90
17399;DHT22;8817;48.170;8.592;2023-06-22T13:43:42;31.90;45.70
17399;DHT22;8817;48.170;8.592;2023-06-22T13:46:09;31.90;45.70
17399;DHT22;8817;48.170;8.592;2023-06-22T13:48:36;31.90;45.60
17399;DHT22;8817;48.170;8.592;2023-06-22T13:51:04;32.00;45.60
17399;DHT22;8817;48.170;8.592;2023-06-22T13:53:31;31.90;45.40
17399;DHT22;8817;48.170;8.592;2023-06-22T13:55:58;32.00;45.50
17399;DHT22;8817;48.170;8.592;2023-06-22T13:58:25;32.00;45.50
17399;DHT22;8817;48.170;8.592;2023-06-22T14:00:52;32.00;45.60
17399;DHT22;8817;48.170;8.592;2023-06-22T14:03:18;32.10;45.60
17399;DHT22;8817;48.170;8.592;2023-06-22T14:05:45;32.10;45.60
17399;DHT22;8817;48.170;8.592;2023-06-22T14:08:13;32.20;45.40
17399;DHT22;8817;48.170;8.592;2023-06-22T14:10:40;32.30;45.20
17399;DHT22;8817;48.170;8.592;2023-06-22T14:13:07;32.30;45.00
17399;DHT22;8817;48.170;8.592;2023-06-22T14:15:34;32.30;44.80
17399;DHT22;8817;48.170;8.592;2023-06-22T14:18:01;32.40;44.70
17399;DHT22;8817;48.170;8.592;2023-06-22T14:20:28;32.40;44.60
17399;DHT22;8817;48.170;8.592;2023-06-22T14:22:54;32.40;44.40
17399;DHT22;8817;48.170;8.592;2023-06-22T14:25:22;32.30;44.30
17399;DHT22;8817;48.170;8.592;2023-06-22T14:27:49;32.30;44.20
17399;DHT22;8817;48.170;8.592;2023-06-22T14:30:16;32.30;44.20
17399;DHT22;8817;48.170;8.592;2023-06-22T14:32:44;32.30;44.10
17399;DHT22;8817;48.170;8.592;2023-06-22T14:35:11;32.30;44.20
17399;DHT22;8817;48.170;8.592;2023-06-22T14:37:38;32.30;44.30
17399;DHT22;8817;48.170;8.592;2023-06-22T14:40:06;32.40;45.00
17399;DHT22;8817;48.170;8.592;2023-06-22T14:42:34;32.30;44.20
17399;DHT22;8817;48.170;8.592;2023-06-22T14:45:01;32.40;44.10
17399;DHT22;8817;48.170;8.592;2023-06-22T14:47:28;32.40;44.00
17399;DHT22;8817;48.170;8.592;2023-06-22T14:49:55;32.40;43.80
17399;DHT22;8817;48.170;8.592;2023-06-22T14:52:22;32.30;43.70
17399;DHT22;8817;48.170;8.592;2023-06-22T14:54:49;32.30;43.60
17399;DHT22;8817;48.170;8.592;2023-06-22T14:57:17;32.30;43.50
17399;DHT22;8817;48.170;8.592;2023-06-22T14:59:46;32.20;43.30
17399;DHT22;8817;48.170;8.592;2023-06-22T15:02:14;32.20;43.30
17399;DHT22;8817;48.170;8.592;2023-06-22T15:04:41;32.10;43.30
17399;DHT22;8817;48.170;8.592;2023-06-22T15:07:08;32.00;43.20
17399;DHT22;8817;48.170;8.592;2023-06-22T15:09:35;32.00;43.10
17399;DHT22;8817;48.170;8.592;2023-06-22T15:12:07;32.00;43.10
17399;DHT22;8817;48.170;8.592;2023-06-22T15:14:37;31.90;43.00
17399;DHT22;8817;48.170;8.592;2023-06-22T15:17:06;31.80;42.90
17399;DHT22;8817;48.170;8.592;2023-06-22T15:19:34;31.70;42.90
17399;DHT22;8817;48.170;8.592;2023-06-22T15:22:02;31.70;42.80
17399;DHT22;8817;48.170;8.592;2023-06-22T15:24:29;31.60;42.80
17399;DHT22;8817;48.170;8.592;2023-06-22T15:26:59;31.50;42.80
17399;DHT22;8817;48.170;8.592;2023-06-22T15:29:26;31.50;42.80
17399;DHT22;8817;48.170;8.592;2023-06-22T15:31:55;31.40;43.30
17399;DHT22;8817;48.170;8.592;2023-06-22T15:34:23;31.30;42.80
17399;DHT22;8817;48.170;8.592;2023-06-22T15:36:50;31.30;42.80
17399;DHT22;8817;48.170;8.592;2023-06-22T15:39:17;31.30;42.80
17399;DHT22;8817;48.170;8.592;2023-06-22T15:41:44;31.20;42.80
17399;DHT22;8817;48.170;8.592;2023-06-22T15:44:11;31.30;42.90
17399;DHT22;8817;48.170;8.592;2023-06-22T15:46:40;31.20;42.90